createdAt,value
2018-08-12T00:01:43.027Z,100960.04
2018-08-12T00:04:14.673Z,100956.75
2018-08-12T00:06:46.203Z,100955.91
2018-08-12T00:09:17.710Z,100953.16
2018-08-12T00:11:49.310Z,100959.50
2018-08-12T00:14:20.769Z,100956.03
2018-08-12T00:16:52.337Z,100950.00
2018-08-12T00:19:23.744Z,100947.25
2018-08-12T00:21:55.449Z,100947.78
2018-08-12T00:24:26.850Z,100951.03
2018-08-12T00:26:58.420Z,100951.99
2018-08-12T00:29:29.830Z,100954.20
2018-08-12T00:32:01.640Z,100948.41
2018-08-12T00:34:33.209Z,100945.85
2018-08-12T00:37:04.764Z,100946.92
2018-08-12T00:39:36.305Z,100951.34
2018-08-12T00:42:07.832Z,100948.06
2018-08-12T00:44:39.573Z,100946.50
2018-08-12T00:47:17.810Z,100942.27
2018-08-12T00:49:49.376Z,100941.19
2018-08-12T00:52:20.873Z,100943.33
2018-08-12T00:54:52.570Z,100934.98
2018-08-12T00:57:24.200Z,100933.06
2018-08-12T00:59:55.723Z,100933.17
2018-08-12T01:02:27.329Z,100932.11
2018-08-12T01:04:58.804Z,100932.00
2018-08-12T01:07:30.665Z,100927.99
2018-08-12T01:10:02.205Z,100935.05
2018-08-12T01:12:33.702Z,100932.00
2018-08-12T01:15:06.553Z,100931.77
2018-08-12T01:17:38.203Z,100930.85
2018-08-12T01:20:12.357Z,100925.86
2018-08-12T01:22:44.000Z,100929.90
2018-08-12T01:25:15.634Z,100928.42
2018-08-12T01:27:47.185Z,100925.97
2018-08-12T01:30:20.724Z,100926.93
2018-08-12T01:32:52.371Z,100926.17
2018-08-12T01:35:23.796Z,100930.80
2018-08-12T01:37:55.450Z,100928.50
2018-08-12T01:40:26.847Z,100925.55
2018-08-12T01:42:58.813Z,100921.09
2018-08-12T01:45:30.319Z,100920.67
2018-08-12T01:48:01.830Z,100923.84
2018-08-12T01:50:33.409Z,100925.75
2018-08-12T01:53:04.891Z,100922.27
2018-08-12T01:55:36.732Z,100921.48
2018-08-12T01:58:08.587Z,100914.92
2018-08-12T02:00:40.001Z,100919.05
2018-08-12T02:03:11.686Z,100913.24
2018-08-12T02:05:43.396Z,100914.92
2018-08-12T02:08:14.896Z,100914.62
2018-08-12T02:10:46.254Z,100914.70
2018-08-12T02:13:17.792Z,100909.31
2018-08-12T02:15:49.385Z,100914.92
2018-08-12T02:18:21.214Z,100921.56
2018-08-12T02:20:52.702Z,100914.70
2018-08-12T02:23:24.217Z,100910.92
2018-08-12T02:25:55.781Z,100914.50
2018-08-12T02:28:27.412Z,100915.03
2018-08-12T02:30:58.843Z,100908.59
2018-08-12T02:33:30.262Z,100910.69
2018-08-12T02:36:01.751Z,100910.38
2018-08-12T02:38:33.299Z,100897.80
2018-08-12T02:41:04.901Z,100909.20
2018-08-12T02:43:36.580Z,100904.02
2018-08-12T02:46:08.211Z,100899.70
2018-08-12T02:48:40.192Z,100899.37
2018-08-12T02:51:11.704Z,100895.78
2018-08-12T02:53:43.199Z,100879.61
2018-08-12T02:56:14.736Z,100885.86
2018-08-12T02:58:46.323Z,100878.77
2018-08-12T03:01:17.811Z,100879.18
2018-08-12T03:03:49.379Z,100879.61
2018-08-12T03:06:20.876Z,100886.36
2018-08-12T03:08:52.425Z,100876.02
2018-08-12T03:11:23.906Z,100877.81
2018-08-12T03:13:54.616Z,100880.25
2018-08-12T03:16:26.206Z,100870.30
2018-08-12T03:18:57.701Z,100872.31
2018-08-12T03:21:29.409Z,100876.75
2018-08-12T03:24:00.764Z,100873.27
2018-08-12T03:26:32.608Z,100872.62
2018-08-12T03:29:04.315Z,100866.94
2018-08-12T03:31:35.736Z,100861.87
2018-08-12T03:34:07.350Z,100864.19
2018-08-12T03:36:38.749Z,100864.61
2018-08-12T03:39:13.392Z,100859.84
2018-08-12T03:41:44.898Z,100862.37
2018-08-12T03:44:16.415Z,100863.84
2018-08-12T03:46:47.868Z,100861.55
2018-08-12T03:49:19.528Z,100864.50
2018-08-12T03:51:50.997Z,100862.81
2018-08-12T03:54:22.780Z,100867.66
2018-08-12T03:56:54.419Z,100856.77
2018-08-12T03:59:25.940Z,100856.34
2018-08-12T04:01:56.576Z,100858.78
2018-08-12T04:04:28.208Z,100853.17
2018-08-12T04:06:59.746Z,100856.27
2018-08-12T04:09:31.433Z,100856.88
2018-08-12T04:12:02.772Z,100856.77
2018-08-12T04:14:34.033Z,100857.72
2018-08-12T04:17:05.241Z,100857.10
2018-08-12T04:19:36.803Z,100859.70
2018-08-12T04:22:08.515Z,100853.80
2018-08-12T04:24:40.225Z,100852.34
2018-08-12T04:27:11.735Z,100849.39
2018-08-12T04:29:43.018Z,100848.74
2018-08-12T04:32:14.326Z,100847.37
2018-08-12T04:34:46.756Z,100844.96
2018-08-12T04:37:18.392Z,100842.11
2018-08-12T04:39:50.198Z,100839.89
2018-08-12T04:42:21.678Z,100840.50
2018-08-12T04:44:53.215Z,100838.83
2018-08-12T04:47:24.730Z,100836.80
2018-08-12T04:49:56.563Z,100837.88
2018-08-12T04:52:27.964Z,100833.22
2018-08-12T04:54:58.550Z,100839.12
2018-08-12T04:57:30.183Z,100840.08
2018-08-12T05:00:01.704Z,100840.08
2018-08-12T05:02:33.205Z,100831.84
2018-08-12T05:05:04.710Z,100829.85
2018-08-12T05:07:36.440Z,100827.53
2018-08-12T05:10:09.330Z,100823.72
2018-08-12T05:12:40.804Z,100827.72
2018-08-12T05:15:12.304Z,100824.77
2018-08-12T05:17:45.356Z,100824.77
2018-08-12T05:20:16.856Z,100824.66
2018-08-12T05:22:48.407Z,100823.59
2018-08-12T05:25:19.985Z,100826.87
2018-08-12T05:27:51.545Z,100822.22
2018-08-12T05:30:22.895Z,100821.94
2018-08-12T05:32:54.553Z,100815.89
2018-08-12T05:35:26.189Z,100813.58
2018-08-12T05:37:57.743Z,100813.05
2018-08-12T05:40:29.432Z,100812.64
2018-08-12T05:43:00.878Z,100807.98
2018-08-12T05:45:32.449Z,100803.14
2018-08-12T05:48:04.317Z,100799.95
2018-08-12T05:50:36.371Z,100799.84
2018-08-12T05:53:07.800Z,100794.25
2018-08-12T05:55:39.429Z,100786.33
2018-08-12T05:58:10.766Z,100794.79
2018-08-12T06:00:42.308Z,100791.95
2018-08-12T06:03:13.766Z,100792.70
2018-08-12T06:05:44.776Z,100795.12
2018-08-12T06:08:15.743Z,100788.98
2018-08-12T06:10:47.214Z,100792.80
2018-08-12T06:13:18.755Z,100786.44
2018-08-12T06:15:50.261Z,100778.84
2018-08-12T06:18:21.550Z,100776.50
2018-08-12T06:20:53.214Z,100779.05
2018-08-12T06:23:24.693Z,100775.56
2018-08-12T06:25:56.212Z,100775.03
2018-08-12T06:28:27.741Z,100770.67
2018-08-12T06:30:59.289Z,100767.19
2018-08-12T06:33:31.208Z,100766.12
2018-08-12T06:36:02.706Z,100763.80
2018-08-12T06:38:34.302Z,100768.43
2018-08-12T06:41:06.319Z,100765.48
2018-08-12T06:43:37.893Z,100763.34
2018-08-12T06:46:09.422Z,100766.08
2018-08-12T06:48:40.830Z,100772.62
2018-08-12T06:51:12.378Z,100772.52
2018-08-12T06:53:43.861Z,100772.95
2018-08-12T06:56:15.580Z,100769.66
2018-08-12T06:58:47.225Z,100760.14
2018-08-12T07:01:18.746Z,100767.34
2018-08-12T07:03:50.014Z,100757.71
2018-08-12T07:06:21.362Z,100755.89
2018-08-12T07:08:52.846Z,100756.83
2018-08-12T07:11:24.477Z,100753.10
2018-08-12T07:13:55.979Z,100747.09
2018-08-12T07:16:27.640Z,100744.20
2018-08-12T07:18:59.195Z,100747.14
2018-08-12T07:21:30.725Z,100746.40
2018-08-12T07:24:02.596Z,100742.76
2018-08-12T07:26:34.309Z,100740.64
2018-08-12T07:29:05.780Z,100748.59
2018-08-12T07:31:37.317Z,100743.28
2018-08-12T07:34:08.883Z,100745.79
2018-08-12T07:36:40.897Z,100742.64
2018-08-12T07:39:12.694Z,100742.64
2018-08-12T07:41:44.693Z,100742.11
2018-08-12T07:44:16.408Z,100736.70
2018-08-12T07:46:47.798Z,100747.35
2018-08-12T07:49:19.344Z,100740.71
2018-08-12T07:51:50.770Z,100737.95
2018-08-12T07:54:22.446Z,100742.27
2018-08-12T07:56:54.200Z,100733.23
2018-08-12T07:59:25.759Z,100723.93
2018-08-12T08:01:57.422Z,100730.18
2018-08-12T08:04:28.771Z,100732.63
2018-08-12T08:07:00.433Z,100729.38
2018-08-12T08:09:32.223Z,100729.47
2018-08-12T08:12:03.763Z,100727.16
2018-08-12T08:14:35.312Z,100728.00
2018-08-12T08:17:06.824Z,100723.52
2018-08-12T08:19:38.445Z,100725.25
2018-08-12T08:22:10.193Z,100723.00
2018-08-12T08:24:41.752Z,100722.83
2018-08-12T08:27:13.699Z,100720.16
2018-08-12T08:29:45.416Z,100717.32
2018-08-12T08:32:17.092Z,100709.45
2018-08-12T08:34:48.672Z,100714.66
2018-08-12T08:37:19.855Z,100713.99
2018-08-12T08:39:54.558Z,100711.12
2018-08-12T08:42:26.218Z,100711.03
2018-08-12T08:44:57.849Z,100710.02
2018-08-12T08:47:29.543Z,100703.10
2018-08-12T08:50:01.300Z,100701.30
2018-08-12T08:52:33.294Z,100701.48
2018-08-12T08:55:05.417Z,100694.00
2018-08-12T08:57:37.208Z,100692.75
2018-08-12T09:00:13.985Z,100690.08
2018-08-12T09:02:46.874Z,100680.36
2018-08-12T09:05:18.963Z,100686.86
2018-08-12T09:07:51.224Z,100684.47
2018-08-12T09:10:22.987Z,100680.36
2018-08-12T09:12:54.684Z,100677.52
2018-08-12T09:15:26.232Z,100672.41
2018-08-12T09:17:57.781Z,100667.67
2018-08-12T09:20:29.441Z,100668.59
2018-08-12T09:23:01.455Z,100663.55
2018-08-12T09:25:32.891Z,100663.17
2018-08-12T09:28:03.621Z,100653.12
2018-08-12T09:30:35.297Z,100657.05
2018-08-12T09:33:07.202Z,100651.63
2018-08-12T09:35:38.838Z,100650.00
2018-08-12T09:38:10.308Z,100650.41
2018-08-12T09:40:41.764Z,100638.69
2018-08-12T09:43:13.449Z,100640.98
2018-08-12T09:45:44.900Z,100636.11
2018-08-12T09:48:15.593Z,100634.27
2018-08-12T09:50:47.204Z,100632.73
2018-08-12T09:53:18.725Z,100628.52
2018-08-12T09:55:49.913Z,100623.92
2018-08-12T09:58:20.413Z,100629.22
2018-08-12T10:00:51.966Z,100618.29
2018-08-12T10:03:23.636Z,100624.34
2018-08-12T10:05:55.215Z,100619.55
2018-08-12T10:08:26.682Z,100612.11
2018-08-12T10:10:58.183Z,100610.91
2018-08-12T10:13:29.762Z,100600.64
2018-08-12T10:16:01.437Z,100600.64
2018-08-12T10:18:33.624Z,100593.99
2018-08-12T10:21:05.199Z,100594.30
2018-08-12T10:23:37.218Z,100593.29
2018-08-12T10:26:08.696Z,100582.52
2018-08-12T10:28:40.318Z,100579.69
2018-08-12T10:31:11.903Z,100578.44
2018-08-12T10:33:42.577Z,100577.52
2018-08-12T10:36:14.214Z,100569.13
2018-08-12T10:38:45.699Z,100562.83
2018-08-12T10:41:17.299Z,100556.97
2018-08-12T10:43:48.797Z,100558.86
2018-08-12T10:46:20.454Z,100553.00
2018-08-12T10:48:52.045Z,100558.50
2018-08-12T10:51:23.738Z,100550.73
2018-08-12T10:53:55.354Z,100544.16
2018-08-12T10:56:26.827Z,100547.09
2018-08-12T10:58:58.460Z,100546.00
2018-08-12T11:01:29.790Z,100535.44
2018-08-12T11:04:01.424Z,100536.97
2018-08-12T11:06:32.992Z,100527.03
2018-08-12T11:09:05.392Z,100524.42
2018-08-12T11:11:36.993Z,100524.27
2018-08-12T11:14:08.766Z,100522.67
2018-08-12T11:16:40.675Z,100512.97
2018-08-12T11:19:12.208Z,100503.94
2018-08-12T11:21:43.789Z,100506.00
2018-08-12T11:24:15.356Z,100504.83
2018-08-12T11:26:47.012Z,100505.77
2018-08-12T11:29:18.689Z,100499.78
2018-08-12T11:31:50.322Z,100502.86
2018-08-12T11:34:21.739Z,100493.22
2018-08-12T11:36:53.422Z,100493.80
2018-08-12T11:39:24.857Z,100484.34
2018-08-12T11:41:56.424Z,100481.21
2018-08-12T11:44:27.902Z,100476.15
2018-08-12T11:46:58.636Z,100473.39
2018-08-12T11:49:30.215Z,100462.45
2018-08-12T11:52:01.723Z,100469.95
2018-08-12T11:54:33.368Z,100455.31
2018-08-12T11:57:07.866Z,100452.62
2018-08-12T11:59:39.452Z,100450.27
2018-08-12T12:02:11.847Z,100444.22
2018-08-12T12:04:43.680Z,100451.94
2018-08-12T12:07:15.319Z,100449.73
2018-08-12T12:09:46.813Z,100442.37
2018-08-12T12:12:18.424Z,100442.77
2018-08-12T12:14:49.986Z,100435.73
2018-08-12T12:17:21.575Z,100423.33
2018-08-12T12:19:53.235Z,100428.38
2018-08-12T12:22:24.771Z,100427.47
2018-08-12T12:25:02.768Z,100425.55
2018-08-12T12:27:33.787Z,100425.25
2018-08-12T12:30:06.028Z,100421.34
2018-08-12T12:32:37.690Z,100413.77
2018-08-12T12:35:09.356Z,100415.43
2018-08-12T12:37:41.322Z,100411.23
2018-08-12T12:40:15.606Z,100406.58
2018-08-12T12:42:47.643Z,100407.02
2018-08-12T12:45:19.362Z,100403.69
2018-08-12T12:47:50.850Z,100410.31
2018-08-12T12:50:24.816Z,100401.22
2018-08-12T12:52:56.305Z,100402.45
2018-08-12T12:55:27.852Z,100397.56
2018-08-12T12:57:59.423Z,100398.64
2018-08-12T13:00:31.006Z,100396.11
2018-08-12T13:03:02.642Z,100391.61
2018-08-12T13:05:34.217Z,100382.73
2018-08-12T13:08:05.716Z,100380.88
2018-08-12T13:10:37.316Z,100374.29
2018-08-12T13:13:08.793Z,100365.05
2018-08-12T13:15:40.363Z,100364.97
2018-08-12T13:18:11.815Z,100359.28
2018-08-12T13:20:43.448Z,100355.47
2018-08-12T13:23:15.210Z,100351.27
2018-08-12T13:25:46.764Z,100338.80
2018-08-12T13:28:18.323Z,100343.70
2018-08-12T13:30:49.984Z,100339.70
2018-08-12T13:33:21.682Z,100342.17
2018-08-12T13:35:53.221Z,100331.16
2018-08-12T13:38:24.697Z,100337.09
2018-08-12T13:41:01.281Z,100328.42
2018-08-12T13:43:32.804Z,100328.97
2018-08-12T13:46:04.379Z,100323.11
2018-08-12T13:48:35.872Z,100317.67
2018-08-12T13:51:07.487Z,100320.36
2018-08-12T13:53:39.001Z,100312.64
2018-08-12T13:56:10.644Z,100311.14
2018-08-12T13:58:42.213Z,100305.41
2018-08-12T14:01:13.752Z,100303.42
2018-08-12T14:03:45.416Z,100291.79
2018-08-12T14:06:16.726Z,100287.14
2018-08-12T14:08:48.329Z,100291.02
2018-08-12T14:14:24.848Z,100276.34
2018-08-12T14:16:56.405Z,100281.63
2018-08-12T14:19:28.228Z,100269.53
2018-08-12T14:21:59.808Z,100265.62
2018-08-12T14:24:31.411Z,100262.35
2018-08-12T14:27:02.902Z,100259.05
2018-08-12T14:29:33.607Z,100257.97
2018-08-12T14:32:05.432Z,100241.38
2018-08-12T14:34:36.907Z,100249.56
2018-08-12T14:37:07.662Z,100243.58
2018-08-12T14:39:39.302Z,100234.33
2018-08-12T14:42:10.877Z,100241.28
2018-08-12T14:44:42.615Z,100233.02
2018-08-12T14:47:13.900Z,100228.88
2018-08-12T14:49:45.344Z,100226.96
2018-08-12T14:52:17.341Z,100222.86
2018-08-12T14:54:48.909Z,100219.59
2018-08-12T14:57:19.612Z,100214.24
2018-08-12T14:59:51.216Z,100209.88
2018-08-12T15:02:22.753Z,100217.13
2018-08-12T15:04:53.828Z,100210.02
2018-08-12T15:07:25.293Z,100207.20
2018-08-12T15:09:56.867Z,100202.58
2018-08-12T15:12:28.686Z,100198.70
2018-08-12T15:15:00.486Z,100196.78
2018-08-12T15:17:32.029Z,100194.31
2018-08-12T15:20:03.723Z,100189.57
2018-08-12T15:22:35.473Z,100192.70
2018-08-12T15:25:09.319Z,100197.13
2018-08-12T15:27:40.799Z,100188.32
2018-08-12T15:30:12.281Z,100186.78
2018-08-12T15:32:43.813Z,100185.95
2018-08-12T15:35:15.478Z,100178.94
2018-08-12T15:37:47.021Z,100183.19
2018-08-12T15:40:18.666Z,100178.03
2018-08-12T15:42:50.511Z,100170.47
2018-08-12T15:45:22.226Z,100171.02
2018-08-12T15:55:23.707Z,100157.78
2018-08-12T15:57:54.761Z,100151.19
2018-08-12T16:00:25.800Z,100147.72
2018-08-12T16:02:56.867Z,100152.17
2018-08-12T16:05:28.385Z,100142.61
2018-08-12T16:07:59.812Z,100138.61
2018-08-12T16:10:31.775Z,100132.65
2018-08-12T16:13:03.397Z,100125.67
2018-08-12T16:15:34.869Z,100132.09
2018-08-12T16:18:06.462Z,100126.33
2018-08-12T16:20:37.765Z,100116.73
2018-08-12T16:23:09.453Z,100120.48
2018-08-12T16:25:40.794Z,100125.45
2018-08-12T16:28:12.348Z,100112.50
2018-08-12T16:30:44.460Z,100116.23
2018-08-12T16:33:15.887Z,100109.89
2018-08-12T16:35:47.591Z,100109.89
2018-08-12T16:38:19.066Z,100109.94
2018-08-12T16:40:50.675Z,100107.79
2018-08-12T16:43:22.212Z,100100.64
2018-08-12T16:45:53.704Z,100106.41
2018-08-12T16:48:25.242Z,100096.83
2018-08-12T16:50:56.711Z,100093.95
2018-08-12T16:53:28.352Z,100093.58
2018-08-12T16:55:59.800Z,100087.55
2018-08-12T16:58:31.222Z,100090.05
2018-08-12T17:01:02.769Z,100084.74
2018-08-12T17:03:34.361Z,100084.94
2018-08-12T17:06:05.834Z,100074.14
2018-08-12T17:08:37.218Z,100071.39
2018-08-12T17:11:08.703Z,100074.14
2018-08-12T17:13:40.077Z,100068.63
2018-08-12T17:16:11.703Z,100064.45
2018-08-12T17:18:43.669Z,100067.52
2018-08-12T17:21:15.338Z,100057.93
2018-08-12T17:23:46.826Z,100057.23
2018-08-12T17:26:18.388Z,100052.06
2018-08-12T17:28:49.819Z,100050.37
2018-08-12T17:31:21.429Z,100047.33
2018-08-12T17:33:53.010Z,100040.16
2018-08-12T17:36:24.654Z,100050.09
2018-08-12T17:38:56.542Z,100045.41
2018-08-12T17:41:28.196Z,100047.54
2018-08-12T17:43:59.713Z,100046.23
2018-08-12T17:46:31.365Z,100040.16
2018-08-12T17:49:02.925Z,100040.73
2018-08-12T17:51:33.594Z,100042.37
2018-08-12T17:54:04.987Z,100048.66
2018-08-12T17:56:36.694Z,100042.86
2018-08-12T17:59:08.210Z,100043.09
2018-08-12T18:01:39.681Z,100034.82
2018-08-12T18:04:11.221Z,100033.77
2018-08-12T18:06:43.230Z,100035.97
2018-08-12T18:09:14.758Z,100033.63
2018-08-12T18:11:46.209Z,100031.09
2018-08-12T18:14:17.756Z,100026.41
2018-08-12T18:16:49.220Z,100032.53
2018-08-12T18:19:20.697Z,100026.41
2018-08-12T18:21:51.932Z,100023.55
2018-08-12T18:24:22.606Z,100027.45
2018-08-12T18:26:54.294Z,100024.98
2018-08-12T18:29:25.750Z,100027.13
2018-08-12T18:31:57.202Z,100022.17
2018-08-12T18:34:28.761Z,100016.60
2018-08-12T18:36:59.778Z,100027.28
2018-08-12T18:39:30.801Z,100023.20
2018-08-12T18:42:02.243Z,100019.56
2018-08-12T18:44:33.726Z,100020.02
2018-08-12T18:47:05.301Z,100022.06
2018-08-12T18:49:36.788Z,100024.53
2018-08-12T18:52:08.326Z,100016.92
2018-08-12T18:54:39.792Z,100024.70
2018-08-12T18:57:11.336Z,100021.66
2018-08-12T18:59:42.807Z,100032.56
2018-08-12T19:02:14.303Z,100034.55
2018-08-12T19:04:45.808Z,100037.47
2018-08-12T19:07:17.221Z,100027.60
2018-08-12T19:09:48.527Z,100028.38
2018-08-12T19:12:19.644Z,100031.62
2018-08-12T19:14:50.720Z,100026.11
2018-08-12T19:17:22.218Z,100027.42
2018-08-12T19:19:53.732Z,100024.13
2018-08-12T19:22:25.324Z,100028.86
2018-08-12T19:24:56.745Z,100019.77
2018-08-12T19:27:28.226Z,100022.52
2018-08-12T19:29:59.728Z,100020.83
2018-08-12T19:32:31.201Z,100010.47
2018-08-12T19:35:02.684Z,100024.07
2018-08-12T19:37:34.399Z,100017.67
2018-08-12T19:40:06.637Z,100021.86
2018-08-12T19:42:38.211Z,100016.91
2018-08-12T19:45:11.769Z,100017.91
2018-08-12T19:47:43.382Z,100021.69
2018-08-12T19:50:14.779Z,100018.61
2018-08-12T19:52:46.217Z,100018.67
2018-08-12T19:55:17.729Z,100018.94
2018-08-12T20:00:59.742Z,100020.31
2018-08-12T20:03:30.758Z,100024.13
2018-08-12T20:06:02.576Z,100022.45
2018-08-12T20:08:33.727Z,100020.54
2018-08-12T20:11:04.817Z,100019.83
2018-08-12T20:13:35.808Z,100021.14
2018-08-12T20:16:06.795Z,100016.66
2018-08-12T20:18:38.226Z,100023.13
2018-08-12T20:21:09.746Z,100022.23
2018-08-12T20:23:41.422Z,100010.78
2018-08-12T20:26:12.781Z,100015.23
2018-08-12T20:28:44.458Z,100008.57
2018-08-12T20:31:15.900Z,100011.81
2018-08-12T20:33:46.582Z,100005.70
2018-08-12T20:36:17.981Z,100014.22
2018-08-12T20:38:49.606Z,100008.39
2018-08-12T20:41:21.014Z,100007.79
2018-08-12T20:43:52.739Z,100001.91
2018-08-12T20:46:24.319Z,100004.11
2018-08-12T20:48:56.211Z,99997.03
2018-08-12T20:51:27.728Z,100003.50
2018-08-12T20:53:59.300Z,99997.78
2018-08-12T20:56:30.747Z,99990.89
2018-08-12T20:59:02.396Z,99992.27
2018-08-12T21:01:34.035Z,99988.37
2018-08-12T21:04:05.661Z,99990.06
2018-08-12T21:06:37.367Z,99995.02
2018-08-12T21:09:11.728Z,99994.19
2018-08-12T21:11:43.402Z,99981.62
2018-08-12T21:14:14.833Z,99984.18
2018-08-12T21:16:46.301Z,99984.72
2018-08-12T21:19:17.673Z,99982.23
2018-08-12T21:21:48.991Z,99983.89
2018-08-12T21:24:20.612Z,99984.86
2018-08-12T21:26:52.208Z,99979.35
2018-08-12T21:29:23.716Z,99979.58
2018-08-12T21:31:55.310Z,99977.44
2018-08-12T21:34:26.725Z,99972.47
2018-08-12T21:36:58.386Z,99970.78
2018-08-12T21:39:29.775Z,99969.95
2018-08-12T21:42:01.300Z,99967.74
2018-08-12T21:44:33.224Z,99966.08
2018-08-12T21:47:04.681Z,99963.00
2018-08-12T21:49:36.337Z,99964.38
2018-08-12T21:52:07.743Z,99956.90
2018-08-12T21:54:39.313Z,99954.75
2018-08-12T21:57:10.753Z,99949.25
2018-08-12T21:59:42.301Z,99947.09
2018-08-12T22:02:13.713Z,99947.59
2018-08-12T22:04:45.226Z,99944.28
2018-08-12T22:07:16.758Z,99943.14
2018-08-12T22:09:48.315Z,99939.49
2018-08-12T22:12:19.694Z,99934.53
2018-08-12T22:14:50.972Z,99932.55
2018-08-12T22:17:22.356Z,99934.47
2018-08-12T22:19:53.752Z,99935.08
2018-08-12T22:22:25.729Z,99933.45
2018-08-12T22:24:57.195Z,99919.34
2018-08-12T22:27:28.700Z,99928.00
2018-08-12T22:30:00.335Z,99922.21
2018-08-12T22:32:31.765Z,99921.38
2018-08-12T22:35:03.313Z,99922.98
2018-08-12T22:37:34.774Z,99926.99
2018-08-12T22:40:07.688Z,99916.47
2018-08-12T22:42:39.214Z,99923.19
2018-08-12T22:45:12.378Z,99921.48
2018-08-12T22:47:43.741Z,99917.36
2018-08-12T22:50:15.425Z,99918.73
2018-08-12T22:52:46.851Z,99913.17
2018-08-12T22:55:18.381Z,99915.86
2018-08-12T22:57:49.716Z,99912.83
2018-08-12T23:00:21.913Z,99909.25
2018-08-12T23:02:52.521Z,99908.16
2018-08-12T23:05:23.879Z,99909.64
2018-08-12T23:07:55.534Z,99903.36
2018-08-12T23:10:26.709Z,99904.73
2018-08-12T23:12:58.300Z,99905.05
2018-08-12T23:16:54.702Z,99899.72
2018-08-12T23:19:25.975Z,99899.25
2018-08-12T23:21:57.395Z,99897.62
2018-08-12T23:24:28.782Z,99899.12
2018-08-12T23:27:00.313Z,99897.23
2018-08-12T23:29:31.805Z,99891.95
2018-08-12T23:32:03.313Z,99888.59
2018-08-12T23:34:34.780Z,99887.83
2018-08-12T23:37:06.712Z,99875.05
2018-08-12T23:39:38.696Z,99882.49
2018-08-12T23:42:10.197Z,99872.17
2018-08-12T23:44:41.680Z,99878.56
2018-08-12T23:47:12.993Z,99879.39
2018-08-12T23:49:44.517Z,99876.09
2018-08-12T23:52:15.856Z,99879.94
2018-08-12T23:54:47.396Z,99869.99
2018-08-12T23:57:18.789Z,99871.91
2018-08-12T23:59:49.894Z,99876.81
